createdAt,value
2019-05-19T00:01:58.478Z,80.78
2019-05-19T00:04:27.797Z,81.40
2019-05-19T00:06:57.164Z,80.87
2019-05-19T00:09:26.595Z,79.48
2019-05-19T00:11:55.932Z,79.48
2019-05-19T00:16:50.440Z,79.29
2019-05-19T00:19:26.722Z,79.46
2019-05-19T00:21:50.903Z,80.89
2019-05-19T00:24:20.306Z,80.24
2019-05-19T00:26:49.643Z,79.18
2019-05-19T00:29:18.987Z,80.14
2019-05-19T00:31:48.461Z,79.98
2019-05-19T00:34:18.259Z,80.21
2019-05-19T00:36:47.627Z,79.31
2019-05-19T00:39:17.030Z,80.12
2019-05-19T00:41:46.398Z,79.93
2019-05-19T00:44:15.767Z,79.93
2019-05-19T00:46:45.205Z,79.45
2019-05-19T00:49:14.591Z,79.45
2019-05-19T00:51:44.535Z,79.58
2019-05-19T00:54:13.977Z,79.64
2019-05-19T00:56:43.593Z,79.78
2019-05-19T00:59:13.953Z,79.98
2019-05-19T01:01:43.339Z,81.03
2019-05-19T01:04:12.690Z,81.65
2019-05-19T01:06:42.074Z,82.03
2019-05-19T01:09:11.451Z,82.21
2019-05-19T01:11:41.124Z,83.09
2019-05-19T01:14:10.537Z,83.25
2019-05-19T01:16:39.910Z,83.37
2019-05-19T01:19:09.316Z,83.05
2019-05-19T01:21:40.168Z,83.25
2019-05-19T01:24:09.589Z,83.14
2019-05-19T01:26:39.049Z,83.81
2019-05-19T01:29:08.431Z,83.91
2019-05-19T01:31:37.810Z,83.93
2019-05-19T01:34:07.305Z,84.45
2019-05-19T01:36:36.671Z,84.52
2019-05-19T01:39:07.031Z,84.84
2019-05-19T01:41:36.409Z,85.04
2019-05-19T01:44:05.911Z,85.45
2019-05-19T01:46:35.263Z,85.42
2019-05-19T01:49:04.655Z,85.65
2019-05-19T01:51:33.986Z,86.11
2019-05-19T01:54:03.471Z,86.13
2019-05-19T01:56:32.842Z,86.08
2019-05-19T01:59:02.226Z,86.23
2019-05-19T02:01:31.578Z,86.42
2019-05-19T02:04:01.016Z,86.64
2019-05-19T02:06:30.370Z,86.65
2019-05-19T02:08:59.731Z,86.47
2019-05-19T02:11:29.131Z,86.68
2019-05-19T02:13:58.561Z,86.40
2019-05-19T02:16:27.937Z,86.47
2019-05-19T02:18:57.329Z,86.97
2019-05-19T02:21:26.695Z,87.53
2019-05-19T02:23:56.114Z,87.76
2019-05-19T02:26:25.475Z,87.68
2019-05-19T02:28:54.833Z,87.69
2019-05-19T02:31:24.358Z,88.07
2019-05-19T02:33:53.765Z,88.11
2019-05-19T02:36:23.116Z,88.69
2019-05-19T02:38:52.493Z,88.61
2019-05-19T02:41:24.692Z,88.64
2019-05-19T02:43:54.857Z,88.63
2019-05-19T02:46:25.134Z,88.75
2019-05-19T02:48:55.513Z,89.35
2019-05-19T02:51:27.402Z,89.69
2019-05-19T02:53:57.321Z,90.15
2019-05-19T02:56:28.513Z,90.31
2019-05-19T02:58:58.938Z,90.46
2019-05-19T03:01:28.379Z,90.45
2019-05-19T03:03:57.778Z,91.01
2019-05-19T03:06:27.449Z,91.23
2019-05-19T03:08:56.855Z,91.38
2019-05-19T03:11:26.275Z,91.02
2019-05-19T03:13:55.701Z,91.17
2019-05-19T03:16:25.112Z,90.98
2019-05-19T03:18:54.472Z,91.17
2019-05-19T03:21:23.860Z,90.97
2019-05-19T03:23:53.204Z,90.77
2019-05-19T03:26:22.611Z,90.94
2019-05-19T03:28:52.007Z,91.07
2019-05-19T03:31:37.142Z,90.94
2019-05-19T03:34:06.520Z,91.13
2019-05-19T03:36:35.939Z,91.15
2019-05-19T03:39:06.853Z,90.21
2019-05-19T03:41:36.223Z,90.36
2019-05-19T03:44:05.609Z,87.15
2019-05-19T03:46:35.047Z,86.26
2019-05-19T03:49:04.428Z,85.79
2019-05-19T03:51:33.806Z,85.01
2019-05-19T03:54:03.252Z,85.07
2019-05-19T03:56:32.697Z,84.34
2019-05-19T03:59:02.033Z,84.17
2019-05-19T04:01:31.474Z,83.95
2019-05-19T04:04:00.876Z,83.75
2019-05-19T04:06:30.353Z,83.46
2019-05-19T04:08:59.740Z,83.48
2019-05-19T04:11:29.085Z,82.90
2019-05-19T04:13:58.488Z,82.58
2019-05-19T04:16:27.949Z,82.19
2019-05-19T04:18:57.301Z,82.43
2019-05-19T04:21:26.676Z,81.86
2019-05-19T04:23:56.075Z,82.03
2019-05-19T04:26:25.500Z,81.60
2019-05-19T04:28:54.865Z,81.38
2019-05-19T04:31:24.225Z,81.23
2019-05-19T04:33:53.647Z,80.43
2019-05-19T04:36:23.089Z,81.17
2019-05-19T04:38:52.506Z,79.85
2019-05-19T04:41:21.851Z,79.49
2019-05-19T04:43:51.238Z,79.49
2019-05-19T04:46:20.704Z,80.28
2019-05-19T04:48:50.051Z,81.20
2019-05-19T04:51:19.391Z,80.17
2019-05-19T04:53:48.772Z,78.40
2019-05-19T04:56:19.868Z,78.29
2019-05-19T04:58:49.429Z,77.97
2019-05-19T05:01:18.768Z,77.35
2019-05-19T05:03:48.164Z,76.62
2019-05-19T05:06:17.524Z,76.33
2019-05-19T05:08:47.046Z,76.27
2019-05-19T05:11:16.536Z,74.98
2019-05-19T05:13:45.980Z,74.73
2019-05-19T05:16:15.377Z,75.50
2019-05-19T05:18:47.721Z,73.80
2019-05-19T05:21:15.874Z,72.76
2019-05-19T05:23:45.276Z,72.89
2019-05-19T05:26:14.709Z,71.96
2019-05-19T05:28:44.097Z,70.81
2019-05-19T05:31:15.533Z,70.31
2019-05-19T05:33:44.547Z,70.61
2019-05-19T05:36:13.902Z,70.65
2019-05-19T05:38:43.363Z,70.42
2019-05-19T05:41:17.968Z,71.77
2019-05-19T05:43:47.351Z,71.52
2019-05-19T05:46:16.748Z,71.67
2019-05-19T05:48:46.098Z,71.17
2019-05-19T05:51:15.456Z,70.80
2019-05-19T05:53:44.805Z,70.74
2019-05-19T05:56:14.158Z,70.35
2019-05-19T05:58:43.511Z,69.50
2019-05-19T06:01:12.871Z,69.96
2019-05-19T06:03:42.241Z,70.43
2019-05-19T06:06:11.707Z,70.62
2019-05-19T06:08:41.176Z,70.55
2019-05-19T06:11:10.597Z,70.03
2019-05-19T06:13:40.007Z,70.18
2019-05-19T06:16:09.583Z,70.18
2019-05-19T06:18:38.924Z,70.29
2019-05-19T06:21:08.360Z,70.05
2019-05-19T06:23:37.689Z,71.09
2019-05-19T06:26:07.098Z,70.67
2019-05-19T06:28:36.480Z,70.78
2019-05-19T06:31:05.814Z,70.43
2019-05-19T06:33:35.151Z,70.36
2019-05-19T06:36:04.512Z,69.84
2019-05-19T06:38:33.899Z,68.83
2019-05-19T06:41:03.271Z,68.49
2019-05-19T06:43:32.563Z,68.32
2019-05-19T06:46:01.875Z,67.74
2019-05-19T06:48:31.238Z,66.93
2019-05-19T06:51:00.576Z,67.37
2019-05-19T06:53:29.936Z,66.53
2019-05-19T06:55:59.299Z,65.57
2019-05-19T06:58:28.964Z,65.96
2019-05-19T07:00:59.258Z,66.25
2019-05-19T07:03:28.736Z,66.08
2019-05-19T07:05:58.120Z,65.07
2019-05-19T07:08:27.537Z,64.72
2019-05-19T07:10:56.866Z,64.42
2019-05-19T07:13:26.226Z,64.42
2019-05-19T07:15:55.727Z,64.00
2019-05-19T07:18:25.147Z,63.80
2019-05-19T07:20:54.511Z,62.97
2019-05-19T07:23:28.431Z,63.93
2019-05-19T07:25:54.994Z,63.64
2019-05-19T07:28:24.398Z,62.62
2019-05-19T07:30:53.753Z,62.50
2019-05-19T07:33:23.083Z,62.92
2019-05-19T07:35:52.438Z,62.57
2019-05-19T07:38:21.877Z,60.14
2019-05-19T07:40:53.418Z,60.52
2019-05-19T07:43:22.783Z,60.34
2019-05-19T07:45:52.225Z,60.67
2019-05-19T07:48:21.577Z,59.56
2019-05-19T07:50:50.969Z,58.91
2019-05-19T07:53:20.338Z,57.89
2019-05-19T07:55:49.701Z,57.82
2019-05-19T07:58:19.076Z,57.41
2019-05-19T08:00:48.486Z,56.03
2019-05-19T08:03:17.860Z,56.00
2019-05-19T08:05:47.209Z,57.86
2019-05-19T08:08:16.621Z,56.91
2019-05-19T08:10:46.282Z,54.45
2019-05-19T08:13:15.619Z,54.38
2019-05-19T08:15:46.366Z,52.38
2019-05-19T08:18:15.771Z,53.19
2019-05-19T08:20:45.016Z,51.75
2019-05-19T08:23:14.429Z,51.91
2019-05-19T08:25:43.807Z,52.79
2019-05-19T08:28:13.201Z,53.74
2019-05-19T08:30:42.578Z,51.89
2019-05-19T08:33:11.948Z,50.95
2019-05-19T08:35:41.649Z,51.21
2019-05-19T08:38:11.025Z,51.16
2019-05-19T08:40:40.453Z,51.15
2019-05-19T08:43:09.820Z,51.28
2019-05-19T08:45:39.208Z,51.95
2019-05-19T08:48:08.596Z,51.41
2019-05-19T08:50:37.959Z,52.60
2019-05-19T08:53:07.315Z,53.29
2019-05-19T08:55:36.746Z,54.15
2019-05-19T08:58:06.253Z,55.02
2019-05-19T09:00:38.428Z,54.78
2019-05-19T09:03:06.969Z,55.32
2019-05-19T09:05:36.387Z,54.49
2019-05-19T09:08:05.828Z,54.68
2019-05-19T09:10:35.190Z,54.24
2019-05-19T09:13:04.564Z,54.23
2019-05-19T09:15:33.959Z,55.08
2019-05-19T09:18:03.333Z,55.00
2019-05-19T09:20:32.660Z,54.79
2019-05-19T09:23:02.020Z,53.53
2019-05-19T09:25:31.384Z,52.13
2019-05-19T09:28:00.729Z,51.65
2019-05-19T09:30:30.214Z,51.63
2019-05-19T09:32:59.590Z,51.58
2019-05-19T09:35:28.936Z,52.11
2019-05-19T09:37:58.530Z,49.85
2019-05-19T09:40:27.894Z,50.80
2019-05-19T09:42:57.229Z,49.38
2019-05-19T09:45:26.609Z,49.99
2019-05-19T09:47:55.960Z,49.91
2019-05-19T09:50:25.338Z,47.90
2019-05-19T09:52:54.679Z,46.60
2019-05-19T09:55:24.030Z,47.12
2019-05-19T09:57:53.377Z,49.41
2019-05-19T10:00:22.932Z,45.86
2019-05-19T10:02:52.375Z,46.64
2019-05-19T10:05:21.710Z,47.80
2019-05-19T10:07:51.057Z,46.76
2019-05-19T10:10:37.336Z,47.01
2019-05-19T10:13:06.646Z,46.69
2019-05-19T10:15:36.025Z,45.97
2019-05-19T10:18:05.402Z,45.29
2019-05-19T10:20:34.748Z,44.98
2019-05-19T10:23:04.206Z,45.13
2019-05-19T10:25:33.572Z,43.80
2019-05-19T10:28:02.923Z,43.54
2019-05-19T10:30:32.279Z,42.94
2019-05-19T10:33:01.645Z,44.43
2019-05-19T10:35:31.012Z,42.65
2019-05-19T10:38:00.386Z,42.93
2019-05-19T10:40:29.755Z,44.42
2019-05-19T10:42:59.120Z,41.75
2019-05-19T10:45:28.516Z,41.71
2019-05-19T10:47:57.866Z,41.83
2019-05-19T10:50:27.208Z,42.26
2019-05-19T10:52:56.895Z,41.34
2019-05-19T10:55:36.149Z,41.13
2019-05-19T10:57:57.355Z,41.44
2019-05-19T11:00:26.756Z,41.78
2019-05-19T11:02:56.119Z,41.67
2019-05-19T11:05:25.530Z,42.29
2019-05-19T11:07:54.895Z,42.27
2019-05-19T11:10:24.298Z,43.49
2019-05-19T11:12:53.658Z,43.06
2019-05-19T11:15:23.325Z,42.19
2019-05-19T11:17:52.684Z,40.70
2019-05-19T11:20:22.091Z,40.77
2019-05-19T11:22:51.495Z,40.27
2019-05-19T11:25:32.979Z,39.69
2019-05-19T11:27:51.995Z,38.52
2019-05-19T11:30:21.376Z,38.58
2019-05-19T11:32:50.787Z,36.48
2019-05-19T11:35:20.101Z,35.92
2019-05-19T11:37:49.468Z,36.64
2019-05-19T11:40:18.876Z,36.18
2019-05-19T11:42:48.235Z,36.51
2019-05-19T11:45:17.810Z,37.49
2019-05-19T11:47:47.208Z,37.45
2019-05-19T11:50:16.626Z,38.25
2019-05-19T11:52:46.014Z,38.25
2019-05-19T11:55:15.430Z,39.59
2019-05-19T11:57:44.820Z,39.68
2019-05-19T12:00:14.601Z,39.61
2019-05-19T12:02:43.975Z,38.70
2019-05-19T12:05:14.057Z,39.42
2019-05-19T12:07:43.419Z,39.70
2019-05-19T12:10:13.161Z,40.60
2019-05-19T12:12:42.572Z,41.24
2019-05-19T12:15:12.327Z,41.06
2019-05-19T12:17:41.692Z,40.55
2019-05-19T12:20:11.797Z,41.99
2019-05-19T12:22:41.153Z,41.71
2019-05-19T12:25:10.532Z,42.62
2019-05-19T12:27:39.941Z,41.32
2019-05-19T12:30:09.850Z,41.69
2019-05-19T12:32:39.208Z,41.07
2019-05-19T12:35:08.911Z,41.26
2019-05-19T12:37:38.276Z,40.89
2019-05-19T12:40:07.747Z,41.09
2019-05-19T12:42:37.128Z,41.21
2019-05-19T12:45:06.585Z,40.60
2019-05-19T12:47:36.359Z,41.04
2019-05-19T12:50:06.468Z,42.04
2019-05-19T12:52:35.804Z,41.90
2019-05-19T12:55:05.809Z,42.61
2019-05-19T12:57:35.344Z,43.01
2019-05-19T13:00:05.206Z,41.50
2019-05-19T13:02:37.851Z,41.49
2019-05-19T13:05:06.420Z,41.27
2019-05-19T13:07:35.901Z,40.90
2019-05-19T13:10:06.145Z,41.59
2019-05-19T13:12:35.506Z,41.45
2019-05-19T13:15:05.508Z,42.76
2019-05-19T13:17:34.902Z,43.43
2019-05-19T13:20:04.658Z,43.02
2019-05-19T13:22:34.117Z,43.68
2019-05-19T13:25:03.512Z,43.97
2019-05-19T13:27:32.927Z,43.96
2019-05-19T13:30:02.354Z,43.67
2019-05-19T13:32:31.773Z,43.94
2019-05-19T13:35:01.125Z,44.54
2019-05-19T13:37:30.553Z,44.58
2019-05-19T13:39:59.939Z,43.78
2019-05-19T13:42:29.336Z,44.44
2019-05-19T13:44:58.898Z,43.56
2019-05-19T13:47:28.273Z,43.30
2019-05-19T13:49:57.753Z,43.34
2019-05-19T13:52:27.160Z,43.51
2019-05-19T13:54:57.204Z,43.52
2019-05-19T13:57:28.959Z,43.52
2019-05-19T13:59:58.594Z,43.51
2019-05-19T14:02:27.938Z,43.01
2019-05-19T14:04:57.315Z,41.89
2019-05-19T14:07:26.708Z,41.29
2019-05-19T14:09:56.093Z,40.50
2019-05-19T14:12:25.490Z,39.89
2019-05-19T14:14:54.821Z,38.70
2019-05-19T14:17:24.290Z,38.68
2019-05-19T14:19:53.702Z,38.70
2019-05-19T14:22:23.116Z,39.92
2019-05-19T14:24:52.565Z,41.16
2019-05-19T14:27:30.385Z,41.34
2019-05-19T14:29:53.116Z,42.48
2019-05-19T14:32:22.556Z,43.11
2019-05-19T14:34:51.922Z,43.80
2019-05-19T14:37:21.325Z,44.17
2019-05-19T14:39:50.695Z,44.95
2019-05-19T14:42:37.596Z,45.06
2019-05-19T14:45:07.631Z,45.72
2019-05-19T14:47:37.006Z,46.53
2019-05-19T14:50:06.467Z,46.35
2019-05-19T14:52:35.915Z,46.44
2019-05-19T14:55:05.306Z,46.60
2019-05-19T14:57:44.327Z,46.95
2019-05-19T15:00:06.343Z,46.06
2019-05-19T15:02:36.362Z,44.86
2019-05-19T15:05:05.953Z,43.79
2019-05-19T15:07:35.359Z,43.11
2019-05-19T15:10:04.851Z,42.41
2019-05-19T15:12:34.420Z,41.77
2019-05-19T15:15:03.903Z,41.47
2019-05-19T15:17:33.254Z,41.61
2019-05-19T15:20:02.636Z,42.83
2019-05-19T15:22:32.116Z,44.69
2019-05-19T15:25:01.511Z,45.18
2019-05-19T15:27:30.864Z,46.00
2019-05-19T15:30:12.320Z,47.69
2019-05-19T15:32:31.389Z,47.40
2019-05-19T15:35:00.761Z,48.04
2019-05-19T15:37:30.142Z,48.55
2019-05-19T15:39:59.586Z,48.83
2019-05-19T15:42:28.964Z,49.18
2019-05-19T15:44:58.304Z,47.30
2019-05-19T15:47:27.659Z,46.11
2019-05-19T15:49:57.081Z,45.04
2019-05-19T15:52:26.497Z,43.99
2019-05-19T15:54:55.836Z,43.60
2019-05-19T15:57:28.401Z,43.57
2019-05-19T15:59:56.313Z,43.32
2019-05-19T16:02:25.810Z,43.66
2019-05-19T16:04:55.242Z,43.45
2019-05-19T16:07:24.648Z,43.05
2019-05-19T16:09:54.044Z,43.03
2019-05-19T16:12:23.370Z,42.88
2019-05-19T16:14:52.770Z,43.36
2019-05-19T16:17:22.134Z,43.10
2019-05-19T16:19:51.489Z,43.36
2019-05-19T16:22:20.857Z,43.13
2019-05-19T16:24:50.217Z,43.56
2019-05-19T16:27:19.631Z,43.98
2019-05-19T16:29:49.000Z,44.46
2019-05-19T16:32:18.356Z,44.66
2019-05-19T16:34:47.728Z,44.92
2019-05-19T16:37:17.171Z,45.46
2019-05-19T16:39:46.563Z,45.66
2019-05-19T16:42:15.902Z,46.14
2019-05-19T16:44:45.302Z,46.80
2019-05-19T16:47:14.686Z,47.46
2019-05-19T16:49:44.068Z,47.56
2019-05-19T16:52:13.494Z,47.99
2019-05-19T16:54:45.396Z,48.35
2019-05-19T16:57:14.785Z,48.76
2019-05-19T16:59:44.171Z,48.79
2019-05-19T17:02:13.511Z,49.73
2019-05-19T17:04:43.002Z,49.87
2019-05-19T17:07:12.352Z,50.00
2019-05-19T17:09:41.686Z,50.16
2019-05-19T17:12:11.053Z,50.75
2019-05-19T17:14:40.486Z,50.64
2019-05-19T17:17:09.849Z,50.74
2019-05-19T17:19:39.227Z,51.05
2019-05-19T17:22:08.573Z,50.97
2019-05-19T17:24:37.973Z,51.14
2019-05-19T17:27:07.497Z,51.23
2019-05-19T17:29:36.829Z,51.29
2019-05-19T17:32:06.486Z,51.35
2019-05-19T17:34:35.973Z,51.31
2019-05-19T17:37:05.351Z,51.85
2019-05-19T17:39:34.721Z,52.00
2019-05-19T17:42:04.116Z,52.29
2019-05-19T17:44:33.664Z,52.05
2019-05-19T17:47:03.061Z,52.81
2019-05-19T17:49:32.390Z,52.91
2019-05-19T17:52:01.777Z,53.56
2019-05-19T17:54:31.874Z,53.53
2019-05-19T17:57:01.632Z,53.89
2019-05-19T17:59:31.774Z,53.88
2019-05-19T18:02:01.221Z,53.96
2019-05-19T18:04:30.598Z,54.88
2019-05-19T18:06:59.932Z,55.40
2019-05-19T18:09:29.269Z,55.92
2019-05-19T18:11:58.668Z,56.66
2019-05-19T18:14:28.025Z,57.59
2019-05-19T18:16:57.407Z,58.31
2019-05-19T18:19:26.763Z,57.96
2019-05-19T18:21:56.139Z,58.43
2019-05-19T18:24:25.484Z,58.92
2019-05-19T18:26:55.872Z,58.98
2019-05-19T18:29:31.284Z,59.47
2019-05-19T18:31:56.366Z,60.24
2019-05-19T18:34:25.853Z,61.41
2019-05-19T18:36:55.624Z,62.18
2019-05-19T18:39:25.030Z,62.09
2019-05-19T18:41:54.342Z,62.73
2019-05-19T18:44:23.701Z,62.89
2019-05-19T18:46:53.438Z,62.96
2019-05-19T18:49:22.841Z,63.24
2019-05-19T18:51:52.275Z,63.45
2019-05-19T18:54:21.700Z,64.22
2019-05-19T18:56:51.308Z,63.25
2019-05-19T18:59:20.591Z,64.13
2019-05-19T19:01:50.367Z,65.32
2019-05-19T19:04:20.873Z,65.25
2019-05-19T19:06:50.788Z,65.21
2019-05-19T19:09:23.765Z,64.23
2019-05-19T19:11:53.686Z,65.32
2019-05-19T19:14:23.075Z,65.74
2019-05-19T19:16:54.730Z,65.51
2019-05-19T19:19:24.093Z,63.68
2019-05-19T19:21:53.436Z,62.29
2019-05-19T19:24:23.277Z,64.90
2019-05-19T19:26:52.703Z,65.76
2019-05-19T19:29:22.088Z,66.94
2019-05-19T19:31:51.438Z,67.54
2019-05-19T19:34:20.811Z,69.40
2019-05-19T19:36:50.155Z,70.19
2019-05-19T19:39:19.534Z,69.79
2019-05-19T19:41:48.877Z,72.04
2019-05-19T19:44:18.262Z,72.57
2019-05-19T19:46:48.599Z,70.39
2019-05-19T19:49:18.248Z,71.54
2019-05-19T19:51:47.601Z,72.77
2019-05-19T19:54:18.573Z,73.67
2019-05-19T19:56:47.998Z,73.31
2019-05-19T19:59:17.358Z,71.75
2019-05-19T20:01:46.810Z,72.54
2019-05-19T20:04:16.196Z,71.72
2019-05-19T20:06:45.601Z,71.76
2019-05-19T20:09:15.138Z,74.02
2019-05-19T20:11:44.508Z,74.81
2019-05-19T20:14:13.882Z,74.53
2019-05-19T20:16:43.288Z,75.92
2019-05-19T20:19:12.646Z,77.43
2019-05-19T20:21:41.961Z,77.58
2019-05-19T20:24:11.322Z,77.16
2019-05-19T20:26:40.827Z,77.65
2019-05-19T20:29:10.192Z,78.14
2019-05-19T20:31:39.651Z,78.66
2019-05-19T20:34:09.122Z,77.80
2019-05-19T20:36:38.580Z,78.35
2019-05-19T20:39:07.968Z,77.57
2019-05-19T20:41:37.379Z,77.69
2019-05-19T20:44:06.763Z,77.39
2019-05-19T20:46:36.237Z,77.45
2019-05-19T20:49:05.710Z,78.51
2019-05-19T20:51:35.079Z,79.09
2019-05-19T20:54:04.638Z,78.64
2019-05-19T20:56:34.038Z,78.41
2019-05-19T20:59:03.539Z,79.26
2019-05-19T21:01:32.899Z,78.84
2019-05-19T21:04:02.280Z,78.57
2019-05-19T21:06:31.713Z,78.66
2019-05-19T21:09:01.097Z,78.52
2019-05-19T21:11:30.434Z,78.56
2019-05-19T21:13:59.913Z,78.86
2019-05-19T21:16:29.309Z,78.38
2019-05-19T21:18:58.758Z,78.25
2019-05-19T21:21:28.105Z,78.07
2019-05-19T21:23:57.540Z,77.69
2019-05-19T21:26:26.938Z,77.69
2019-05-19T21:28:56.292Z,78.07
2019-05-19T21:31:25.645Z,78.23
2019-05-19T21:33:55.062Z,78.24
2019-05-19T21:36:24.557Z,77.93
2019-05-19T21:38:53.949Z,77.78
2019-05-19T21:41:23.342Z,77.40
2019-05-19T21:43:52.698Z,77.72
2019-05-19T21:46:22.079Z,77.19
2019-05-19T21:48:51.457Z,77.61
2019-05-19T21:51:20.860Z,77.54
2019-05-19T21:53:50.227Z,77.98
2019-05-19T21:56:19.640Z,78.96
2019-05-19T21:58:49.065Z,78.31
2019-05-19T22:01:23.119Z,78.33
2019-05-19T22:03:49.711Z,78.11
2019-05-19T22:06:20.893Z,78.36
2019-05-19T22:08:50.284Z,77.53
2019-05-19T22:11:19.656Z,77.67
2019-05-19T22:13:49.027Z,77.17
2019-05-19T22:16:18.397Z,76.92
2019-05-19T22:18:47.801Z,76.10
2019-05-19T22:21:17.248Z,75.40
2019-05-19T22:23:46.631Z,75.16
2019-05-19T22:26:16.033Z,75.50
2019-05-19T22:28:45.397Z,75.39
2019-05-19T22:31:14.762Z,74.72
2019-05-19T22:33:44.200Z,74.41
2019-05-19T22:36:13.630Z,73.65
2019-05-19T22:38:43.018Z,72.87
2019-05-19T22:41:12.379Z,72.71
2019-05-19T22:43:41.761Z,72.54
2019-05-19T22:46:11.157Z,72.38
2019-05-19T22:48:40.532Z,72.05
2019-05-19T22:51:10.023Z,72.36
2019-05-19T22:53:39.492Z,71.85
2019-05-19T22:56:08.917Z,72.90
2019-05-19T22:58:41.411Z,72.61
2019-05-19T23:01:09.418Z,73.39
2019-05-19T23:03:39.193Z,73.01
2019-05-19T23:06:08.605Z,71.17
2019-05-19T23:08:38.025Z,72.34
2019-05-19T23:11:07.386Z,74.19
2019-05-19T23:13:36.775Z,72.95
2019-05-19T23:16:06.187Z,73.75
2019-05-19T23:18:35.524Z,73.78
2019-05-19T23:21:04.896Z,74.55
2019-05-19T23:23:34.235Z,74.11
2019-05-19T23:26:03.629Z,74.19
2019-05-19T23:28:32.994Z,74.83
2019-05-19T23:31:02.361Z,75.65
2019-05-19T23:33:31.733Z,75.79
2019-05-19T23:36:01.740Z,75.20
2019-05-19T23:38:31.125Z,75.09
2019-05-19T23:41:00.578Z,76.84
2019-05-19T23:43:29.956Z,75.70
2019-05-19T23:45:59.353Z,76.18
2019-05-19T23:48:28.704Z,75.68
2019-05-19T23:50:58.114Z,76.13
2019-05-19T23:53:27.461Z,75.67
2019-05-19T23:55:56.853Z,74.74
2019-05-19T23:58:26.257Z,75.45
